sensor_id;sensor_type;location;lat;lon;timestamp;P1;durP1;ratioP1;P2;durP2;ratioP2
2860;SDS011;1438;50.922;6.704;2023-03-04T00:00:07;112.50;;;46.92;;
2860;SDS011;1438;50.922;6.704;2023-03-04T00:02:33;114.70;;;46.15;;
2860;SDS011;1438;50.922;6.704;2023-03-04T00:04:59;111.17;;;43.23;;
2860;SDS011;1438;50.922;6.704;2023-03-04T00:07:27;98.38;;;45.38;;
2860;SDS011;1438;50.922;6.704;2023-03-04T00:09:53;116.50;;;47.03;;
2860;SDS011;1438;50.922;6.704;2023-03-04T00:12:19;106.90;;;45.40;;
2860;SDS011;1438;50.922;6.704;2023-03-04T00:14:45;99.28;;;45.72;;
2860;SDS011;1438;50.922;6.704;2023-03-04T00:17:11;116.07;;;47.37;;
2860;SDS011;1438;50.922;6.704;2023-03-04T00:19:37;100.03;;;44.00;;
2860;SDS011;1438;50.922;6.704;2023-03-04T00:22:03;91.55;;;39.13;;
2860;SDS011;1438;50.922;6.704;2023-03-04T00:24:30;95.90;;;39.55;;
2860;SDS011;1438;50.922;6.704;2023-03-04T00:26:56;95.18;;;40.00;;
2860;SDS011;1438;50.922;6.704;2023-03-04T00:29:22;110.60;;;44.40;;
2860;SDS011;1438;50.922;6.704;2023-03-04T00:31:48;98.85;;;43.60;;
2860;SDS011;1438;50.922;6.704;2023-03-04T00:34:14;102.60;;;41.90;;
2860;SDS011;1438;50.922;6.704;2023-03-04T00:36:40;91.97;;;38.33;;
2860;SDS011;1438;50.922;6.704;2023-03-04T00:39:08;86.88;;;39.28;;
2860;SDS011;1438;50.922;6.704;2023-03-04T00:41:34;89.32;;;40.83;;
2860;SDS011;1438;50.922;6.704;2023-03-04T00:44:01;97.20;;;36.65;;
2860;SDS011;1438;50.922;6.704;2023-03-04T00:46:27;85.38;;;37.05;;
2860;SDS011;1438;50.922;6.704;2023-03-04T00:48:53;96.82;;;39.13;;
2860;SDS011;1438;50.922;6.704;2023-03-04T00:51:18;83.05;;;36.97;;
2860;SDS011;1438;50.922;6.704;2023-03-04T00:53:44;94.65;;;38.95;;
2860;SDS011;1438;50.922;6.704;2023-03-04T00:56:11;93.18;;;39.13;;
2860;SDS011;1438;50.922;6.704;2023-03-04T00:58:37;80.82;;;35.97;;
2860;SDS011;1438;50.922;6.704;2023-03-04T01:01:04;87.22;;;35.92;;
2860;SDS011;1438;50.922;6.704;2023-03-04T01:03:30;87.88;;;39.15;;
2860;SDS011;1438;50.922;6.704;2023-03-04T01:05:57;96.38;;;37.05;;
2860;SDS011;1438;50.922;6.704;2023-03-04T01:08:23;84.13;;;40.20;;
2860;SDS011;1438;50.922;6.704;2023-03-04T01:10:49;86.15;;;39.20;;
2860;SDS011;1438;50.922;6.704;2023-03-04T01:13:15;90.88;;;38.40;;
2860;SDS011;1438;50.922;6.704;2023-03-04T01:15:41;80.68;;;36.28;;
2860;SDS011;1438;50.922;6.704;2023-03-04T01:18:07;88.20;;;36.67;;
2860;SDS011;1438;50.922;6.704;2023-03-04T01:20:33;86.25;;;36.88;;
2860;SDS011;1438;50.922;6.704;2023-03-04T01:23:00;74.68;;;36.22;;
2860;SDS011;1438;50.922;6.704;2023-03-04T01:25:26;81.80;;;34.33;;
2860;SDS011;1438;50.922;6.704;2023-03-04T01:27:52;79.00;;;34.58;;
2860;SDS011;1438;50.922;6.704;2023-03-04T01:30:18;81.95;;;34.65;;
2860;SDS011;1438;50.922;6.704;2023-03-04T01:32:44;77.88;;;35.55;;
2860;SDS011;1438;50.922;6.704;2023-03-04T01:35:10;72.93;;;33.22;;
2860;SDS011;1438;50.922;6.704;2023-03-04T01:37:36;85.72;;;33.05;;
2860;SDS011;1438;50.922;6.704;2023-03-04T01:40:02;78.07;;;36.65;;
2860;SDS011;1438;50.922;6.704;2023-03-04T01:42:30;74.45;;;32.20;;
2860;SDS011;1438;50.922;6.704;2023-03-04T01:44:56;72.80;;;32.20;;
2860;SDS011;1438;50.922;6.704;2023-03-04T01:47:23;72.05;;;31.75;;
2860;SDS011;1438;50.922;6.704;2023-03-04T01:49:53;64.38;;;30.63;;
2860;SDS011;1438;50.922;6.704;2023-03-04T01:52:19;62.53;;;30.55;;
2860;SDS011;1438;50.922;6.704;2023-03-04T01:54:45;63.58;;;30.80;;
2860;SDS011;1438;50.922;6.704;2023-03-04T01:57:22;69.38;;;30.77;;
2860;SDS011;1438;50.922;6.704;2023-03-04T02:00:10;73.22;;;31.95;;
2860;SDS011;1438;50.922;6.704;2023-03-04T02:02:34;64.15;;;30.90;;
2860;SDS011;1438;50.922;6.704;2023-03-04T02:05:01;72.72;;;30.50;;
2860;SDS011;1438;50.922;6.704;2023-03-04T02:07:27;70.22;;;30.20;;
2860;SDS011;1438;50.922;6.704;2023-03-04T02:09:53;73.00;;;32.92;;
2860;SDS011;1438;50.922;6.704;2023-03-04T02:12:19;69.55;;;29.48;;
2860;SDS011;1438;50.922;6.704;2023-03-04T02:14:45;67.68;;;28.65;;
2860;SDS011;1438;50.922;6.704;2023-03-04T02:17:11;57.97;;;28.25;;
2860;SDS011;1438;50.922;6.704;2023-03-04T02:19:52;62.00;;;29.67;;
2860;SDS011;1438;50.922;6.704;2023-03-04T02:22:20;56.97;;;27.88;;
2860;SDS011;1438;50.922;6.704;2023-03-04T02:24:57;70.70;;;30.13;;
2860;SDS011;1438;50.922;6.704;2023-03-04T02:27:25;70.70;;;30.88;;
2860;SDS011;1438;50.922;6.704;2023-03-04T02:29:51;55.88;;;28.55;;
2860;SDS011;1438;50.922;6.704;2023-03-04T02:32:17;61.40;;;29.58;;
2860;SDS011;1438;50.922;6.704;2023-03-04T02:34:47;56.40;;;28.25;;
2860;SDS011;1438;50.922;6.704;2023-03-04T02:37:14;66.50;;;29.08;;
2860;SDS011;1438;50.922;6.704;2023-03-04T02:39:41;63.95;;;28.73;;
2860;SDS011;1438;50.922;6.704;2023-03-04T02:42:07;64.45;;;29.35;;
2860;SDS011;1438;50.922;6.704;2023-03-04T02:44:43;52.53;;;27.15;;
2860;SDS011;1438;50.922;6.704;2023-03-04T02:47:12;58.70;;;29.00;;
2860;SDS011;1438;50.922;6.704;2023-03-04T02:49:39;64.65;;;29.17;;
2860;SDS011;1438;50.922;6.704;2023-03-04T02:54:31;59.78;;;26.63;;
2860;SDS011;1438;50.922;6.704;2023-03-04T02:56:59;58.60;;;28.35;;
2860;SDS011;1438;50.922;6.704;2023-03-04T02:59:25;64.43;;;28.05;;
2860;SDS011;1438;50.922;6.704;2023-03-04T03:01:51;64.10;;;28.20;;
2860;SDS011;1438;50.922;6.704;2023-03-04T03:04:17;60.90;;;25.63;;
2860;SDS011;1438;50.922;6.704;2023-03-04T03:06:44;58.88;;;26.58;;
2860;SDS011;1438;50.922;6.704;2023-03-04T03:09:10;56.10;;;25.10;;
2860;SDS011;1438;50.922;6.704;2023-03-04T03:11:36;58.95;;;23.73;;
2860;SDS011;1438;50.922;6.704;2023-03-04T03:14:03;50.67;;;24.55;;
2860;SDS011;1438;50.922;6.704;2023-03-04T03:16:29;55.30;;;26.17;;
2860;SDS011;1438;50.922;6.704;2023-03-04T03:18:55;52.08;;;23.60;;
2860;SDS011;1438;50.922;6.704;2023-03-04T03:21:21;53.35;;;25.35;;
2860;SDS011;1438;50.922;6.704;2023-03-04T03:23:47;51.33;;;24.60;;
2860;SDS011;1438;50.922;6.704;2023-03-04T03:26:13;54.40;;;25.00;;
2860;SDS011;1438;50.922;6.704;2023-03-04T03:28:39;50.10;;;24.73;;
2860;SDS011;1438;50.922;6.704;2023-03-04T03:31:05;52.97;;;27.88;;
2860;SDS011;1438;50.922;6.704;2023-03-04T03:33:31;48.05;;;23.23;;
2860;SDS011;1438;50.922;6.704;2023-03-04T03:35:57;48.88;;;22.77;;
2860;SDS011;1438;50.922;6.704;2023-03-04T03:38:24;44.75;;;22.30;;
2860;SDS011;1438;50.922;6.704;2023-03-04T03:40:50;52.35;;;24.73;;
2860;SDS011;1438;50.922;6.704;2023-03-04T03:43:16;54.92;;;23.35;;
2860;SDS011;1438;50.922;6.704;2023-03-04T03:45:42;47.67;;;24.40;;
2860;SDS011;1438;50.922;6.704;2023-03-04T03:48:08;48.22;;;23.65;;
2860;SDS011;1438;50.922;6.704;2023-03-04T03:50:34;49.40;;;22.65;;
2860;SDS011;1438;50.922;6.704;2023-03-04T03:53:00;54.13;;;23.45;;
2860;SDS011;1438;50.922;6.704;2023-03-04T03:55:26;50.72;;;24.27;;
2860;SDS011;1438;50.922;6.704;2023-03-04T03:57:52;52.92;;;22.75;;
2860;SDS011;1438;50.922;6.704;2023-03-04T04:00:18;52.42;;;23.70;;
2860;SDS011;1438;50.922;6.704;2023-03-04T04:02:44;51.08;;;24.75;;
2860;SDS011;1438;50.922;6.704;2023-03-04T04:05:10;44.15;;;22.33;;
2860;SDS011;1438;50.922;6.704;2023-03-04T04:07:37;48.50;;;23.95;;
2860;SDS011;1438;50.922;6.704;2023-03-04T04:10:04;50.63;;;22.85;;
2860;SDS011;1438;50.922;6.704;2023-03-04T04:12:30;44.00;;;22.08;;
2860;SDS011;1438;50.922;6.704;2023-03-04T04:14:56;47.97;;;22.95;;
2860;SDS011;1438;50.922;6.704;2023-03-04T04:17:22;45.78;;;21.98;;
2860;SDS011;1438;50.922;6.704;2023-03-04T04:19:48;51.63;;;23.33;;
2860;SDS011;1438;50.922;6.704;2023-03-04T04:22:16;45.15;;;22.42;;
2860;SDS011;1438;50.922;6.704;2023-03-04T04:24:42;52.05;;;22.77;;
2860;SDS011;1438;50.922;6.704;2023-03-04T04:27:08;49.55;;;23.67;;
2860;SDS011;1438;50.922;6.704;2023-03-04T04:29:35;47.47;;;23.13;;
2860;SDS011;1438;50.922;6.704;2023-03-04T04:32:01;50.17;;;21.05;;
2860;SDS011;1438;50.922;6.704;2023-03-04T04:34:28;41.08;;;22.08;;
2860;SDS011;1438;50.922;6.704;2023-03-04T04:36:54;38.78;;;20.02;;
2860;SDS011;1438;50.922;6.704;2023-03-04T04:39:20;43.13;;;20.23;;
2860;SDS011;1438;50.922;6.704;2023-03-04T04:41:46;38.60;;;18.20;;
2860;SDS011;1438;50.922;6.704;2023-03-04T04:44:12;42.55;;;20.50;;
2860;SDS011;1438;50.922;6.704;2023-03-04T04:46:39;48.22;;;22.00;;
2860;SDS011;1438;50.922;6.704;2023-03-04T04:49:06;37.53;;;19.30;;
2860;SDS011;1438;50.922;6.704;2023-03-04T04:51:32;46.55;;;19.50;;
2860;SDS011;1438;50.922;6.704;2023-03-04T04:53:59;31.60;;;14.90;;
2860;SDS011;1438;50.922;6.704;2023-03-04T04:56:26;33.30;;;15.95;;
2860;SDS011;1438;50.922;6.704;2023-03-04T04:58:53;43.55;;;16.80;;
2860;SDS011;1438;50.922;6.704;2023-03-04T05:01:19;35.63;;;16.98;;
2860;SDS011;1438;50.922;6.704;2023-03-04T05:03:45;41.53;;;17.83;;
2860;SDS011;1438;50.922;6.704;2023-03-04T05:06:13;35.03;;;17.10;;
2860;SDS011;1438;50.922;6.704;2023-03-04T05:08:39;34.53;;;16.27;;
2860;SDS011;1438;50.922;6.704;2023-03-04T05:11:06;34.63;;;16.50;;
2860;SDS011;1438;50.922;6.704;2023-03-04T05:13:32;35.55;;;16.27;;
2860;SDS011;1438;50.922;6.704;2023-03-04T05:15:58;38.40;;;16.27;;
2860;SDS011;1438;50.922;6.704;2023-03-04T05:18:25;29.90;;;16.15;;
2860;SDS011;1438;50.922;6.704;2023-03-04T05:20:55;36.78;;;16.42;;
2860;SDS011;1438;50.922;6.704;2023-03-04T05:23:21;35.83;;;12.35;;
2860;SDS011;1438;50.922;6.704;2023-03-04T05:25:48;29.65;;;14.68;;
2860;SDS011;1438;50.922;6.704;2023-03-04T05:28:14;32.25;;;16.90;;
2860;SDS011;1438;50.922;6.704;2023-03-04T05:30:41;40.92;;;17.98;;
2860;SDS011;1438;50.922;6.704;2023-03-04T05:33:08;35.15;;;17.42;;
2860;SDS011;1438;50.922;6.704;2023-03-04T05:35:35;36.72;;;19.08;;
2860;SDS011;1438;50.922;6.704;2023-03-04T05:38:02;39.75;;;17.05;;
2860;SDS011;1438;50.922;6.704;2023-03-04T05:40:28;32.22;;;16.25;;
2860;SDS011;1438;50.922;6.704;2023-03-04T05:42:54;37.60;;;17.30;;
2860;SDS011;1438;50.922;6.704;2023-03-04T05:45:20;32.20;;;14.45;;
2860;SDS011;1438;50.922;6.704;2023-03-04T05:47:47;36.75;;;16.35;;
2860;SDS011;1438;50.922;6.704;2023-03-04T05:50:13;33.40;;;15.05;;
2860;SDS011;1438;50.922;6.704;2023-03-04T05:52:39;33.15;;;13.30;;
2860;SDS011;1438;50.922;6.704;2023-03-04T05:55:05;29.00;;;13.80;;
2860;SDS011;1438;50.922;6.704;2023-03-04T05:57:31;40.53;;;12.80;;
2860;SDS011;1438;50.922;6.704;2023-03-04T05:59:57;24.30;;;9.02;;
2860;SDS011;1438;50.922;6.704;2023-03-04T06:02:23;20.45;;;11.00;;
2860;SDS011;1438;50.922;6.704;2023-03-04T06:04:49;26.27;;;13.00;;
2860;SDS011;1438;50.922;6.704;2023-03-04T06:07:15;36.85;;;14.93;;
2860;SDS011;1438;50.922;6.704;2023-03-04T06:09:41;27.00;;;13.50;;
2860;SDS011;1438;50.922;6.704;2023-03-04T06:12:09;33.35;;;14.13;;
2860;SDS011;1438;50.922;6.704;2023-03-04T06:14:35;27.65;;;14.05;;
2860;SDS011;1438;50.922;6.704;2023-03-04T06:17:01;31.90;;;12.57;;
2860;SDS011;1438;50.922;6.704;2023-03-04T06:19:27;27.25;;;11.60;;
2860;SDS011;1438;50.922;6.704;2023-03-04T06:21:53;22.38;;;9.95;;
2860;SDS011;1438;50.922;6.704;2023-03-04T06:24:19;35.78;;;12.07;;
2860;SDS011;1438;50.922;6.704;2023-03-04T06:26:45;29.70;;;11.35;;
2860;SDS011;1438;50.922;6.704;2023-03-04T06:29:11;21.58;;;11.48;;
2860;SDS011;1438;50.922;6.704;2023-03-04T06:31:37;25.08;;;11.52;;
2860;SDS011;1438;50.922;6.704;2023-03-04T06:34:05;22.38;;;10.98;;
2860;SDS011;1438;50.922;6.704;2023-03-04T06:36:31;30.73;;;12.68;;
2860;SDS011;1438;50.922;6.704;2023-03-04T06:38:57;24.00;;;13.25;;
2860;SDS011;1438;50.922;6.704;2023-03-04T06:41:23;27.75;;;12.35;;
2860;SDS011;1438;50.922;6.704;2023-03-04T06:43:52;30.02;;;12.95;;
2860;SDS011;1438;50.922;6.704;2023-03-04T06:46:18;21.33;;;10.82;;
2860;SDS011;1438;50.922;6.704;2023-03-04T06:48:44;25.33;;;13.00;;
2860;SDS011;1438;50.922;6.704;2023-03-04T06:51:10;23.17;;;10.50;;
2860;SDS011;1438;50.922;6.704;2023-03-04T06:53:37;31.30;;;12.77;;
2860;SDS011;1438;50.922;6.704;2023-03-04T06:56:04;27.25;;;10.77;;
2860;SDS011;1438;50.922;6.704;2023-03-04T06:58:30;24.27;;;11.90;;
2860;SDS011;1438;50.922;6.704;2023-03-04T07:00:56;24.17;;;10.55;;
2860;SDS011;1438;50.922;6.704;2023-03-04T07:03:22;21.77;;;10.07;;
2860;SDS011;1438;50.922;6.704;2023-03-04T07:05:48;34.53;;;10.30;;
2860;SDS011;1438;50.922;6.704;2023-03-04T07:08:14;26.95;;;9.63;;
2860;SDS011;1438;50.922;6.704;2023-03-04T07:10:40;33.60;;;10.98;;
2860;SDS011;1438;50.922;6.704;2023-03-04T07:13:06;22.30;;;8.40;;
2860;SDS011;1438;50.922;6.704;2023-03-04T07:15:32;23.65;;;7.80;;
2860;SDS011;1438;50.922;6.704;2023-03-04T07:18:00;16.73;;;8.55;;
2860;SDS011;1438;50.922;6.704;2023-03-04T07:20:26;18.02;;;7.50;;
2860;SDS011;1438;50.922;6.704;2023-03-04T07:22:52;16.42;;;6.53;;
2860;SDS011;1438;50.922;6.704;2023-03-04T07:25:18;19.48;;;6.93;;
2860;SDS011;1438;50.922;6.704;2023-03-04T07:27:44;18.60;;;7.50;;
2860;SDS011;1438;50.922;6.704;2023-03-04T07:30:10;14.75;;;7.25;;
2860;SDS011;1438;50.922;6.704;2023-03-04T07:32:36;17.23;;;6.80;;
2860;SDS011;1438;50.922;6.704;2023-03-04T07:35:02;15.55;;;7.35;;
2860;SDS011;1438;50.922;6.704;2023-03-04T07:37:28;17.48;;;7.68;;
2860;SDS011;1438;50.922;6.704;2023-03-04T07:39:54;26.52;;;9.07;;
2860;SDS011;1438;50.922;6.704;2023-03-04T07:42:20;15.15;;;6.50;;
2860;SDS011;1438;50.922;6.704;2023-03-04T07:44:46;20.95;;;7.75;;
2860;SDS011;1438;50.922;6.704;2023-03-04T07:47:12;16.73;;;6.35;;
2860;SDS011;1438;50.922;6.704;2023-03-04T07:49:38;19.40;;;7.00;;
2860;SDS011;1438;50.922;6.704;2023-03-04T07:52:04;32.05;;;7.65;;
2860;SDS011;1438;50.922;6.704;2023-03-04T07:54:31;15.02;;;5.22;;
2860;SDS011;1438;50.922;6.704;2023-03-04T07:56:57;11.80;;;5.40;;
2860;SDS011;1438;50.922;6.704;2023-03-04T07:59:23;14.63;;;6.28;;
2860;SDS011;1438;50.922;6.704;2023-03-04T08:01:49;16.73;;;5.22;;
2860;SDS011;1438;50.922;6.704;2023-03-04T08:04:15;16.50;;;4.50;;
2860;SDS011;1438;50.922;6.704;2023-03-04T08:06:41;12.63;;;4.78;;
2860;SDS011;1438;50.922;6.704;2023-03-04T08:09:09;14.20;;;5.10;;
2860;SDS011;1438;50.922;6.704;2023-03-04T08:11:36;22.25;;;5.13;;
2860;SDS011;1438;50.922;6.704;2023-03-04T08:14:03;9.50;;;4.38;;
2860;SDS011;1438;50.922;6.704;2023-03-04T08:16:29;13.85;;;6.38;;
2860;SDS011;1438;50.922;6.704;2023-03-04T08:18:56;10.18;;;5.00;;
2860;SDS011;1438;50.922;6.704;2023-03-04T08:21:23;9.25;;;4.40;;
2860;SDS011;1438;50.922;6.704;2023-03-04T08:23:49;16.25;;;5.00;;
2860;SDS011;1438;50.922;6.704;2023-03-04T08:26:27;14.10;;;5.70;;
2860;SDS011;1438;50.922;6.704;2023-03-04T08:28:53;21.42;;;6.07;;
2860;SDS011;1438;50.922;6.704;2023-03-04T08:31:20;7.85;;;3.70;;
2860;SDS011;1438;50.922;6.704;2023-03-04T08:33:46;15.93;;;4.30;;
2860;SDS011;1438;50.922;6.704;2023-03-04T08:36:13;13.00;;;4.07;;
2860;SDS011;1438;50.922;6.704;2023-03-04T08:38:39;15.68;;;3.65;;
2860;SDS011;1438;50.922;6.704;2023-03-04T08:41:05;11.60;;;3.88;;
2860;SDS011;1438;50.922;6.704;2023-03-04T08:43:32;13.60;;;3.80;;
2860;SDS011;1438;50.922;6.704;2023-03-04T08:45:58;10.77;;;3.33;;
2860;SDS011;1438;50.922;6.704;2023-03-04T08:48:24;8.52;;;3.00;;
2860;SDS011;1438;50.922;6.704;2023-03-04T08:50:51;2.80;;;2.03;;
2860;SDS011;1438;50.922;6.704;2023-03-04T08:53:18;10.43;;;3.25;;
2860;SDS011;1438;50.922;6.704;2023-03-04T08:55:44;14.57;;;3.42;;
2860;SDS011;1438;50.922;6.704;2023-03-04T08:58:10;9.32;;;3.45;;
2860;SDS011;1438;50.922;6.704;2023-03-04T09:00:38;10.82;;;3.50;;
2860;SDS011;1438;50.922;6.704;2023-03-04T09:03:04;11.15;;;3.67;;
2860;SDS011;1438;50.922;6.704;2023-03-04T09:05:31;8.70;;;2.75;;
2860;SDS011;1438;50.922;6.704;2023-03-04T09:07:57;16.88;;;2.70;;
2860;SDS011;1438;50.922;6.704;2023-03-04T09:10:23;7.90;;;2.55;;
2860;SDS011;1438;50.922;6.704;2023-03-04T09:12:49;12.50;;;3.08;;
2860;SDS011;1438;50.922;6.704;2023-03-04T09:15:16;7.50;;;2.80;;
2860;SDS011;1438;50.922;6.704;2023-03-04T09:17:42;10.00;;;3.00;;
2860;SDS011;1438;50.922;6.704;2023-03-04T09:20:08;7.50;;;3.55;;
2860;SDS011;1438;50.922;6.704;2023-03-04T09:22:36;4.80;;;3.20;;
2860;SDS011;1438;50.922;6.704;2023-03-04T09:25:02;12.70;;;3.20;;
2860;SDS011;1438;50.922;6.704;2023-03-04T09:27:28;11.13;;;3.47;;
2860;SDS011;1438;50.922;6.704;2023-03-04T09:29:54;7.35;;;3.22;;
2860;SDS011;1438;50.922;6.704;2023-03-04T09:32:20;20.70;;;6.93;;
2860;SDS011;1438;50.922;6.704;2023-03-04T09:34:46;14.80;;;7.18;;
2860;SDS011;1438;50.922;6.704;2023-03-04T09:37:12;12.48;;;3.08;;
2860;SDS011;1438;50.922;6.704;2023-03-04T09:39:38;9.45;;;2.60;;
2860;SDS011;1438;50.922;6.704;2023-03-04T09:42:05;8.60;;;2.90;;
2860;SDS011;1438;50.922;6.704;2023-03-04T09:44:33;9.13;;;2.70;;
2860;SDS011;1438;50.922;6.704;2023-03-04T09:47:02;5.82;;;2.50;;
2860;SDS011;1438;50.922;6.704;2023-03-04T09:49:29;6.82;;;2.60;;
2860;SDS011;1438;50.922;6.704;2023-03-04T09:57:22;11.85;;;2.80;;
2860;SDS011;1438;50.922;6.704;2023-03-04T09:59:55;7.47;;;3.80;;
2860;SDS011;1438;50.922;6.704;2023-03-04T10:02:33;9.63;;;3.10;;
2860;SDS011;1438;50.922;6.704;2023-03-04T10:05:01;6.78;;;2.75;;
2860;SDS011;1438;50.922;6.704;2023-03-04T10:07:33;9.45;;;2.90;;
2860;SDS011;1438;50.922;6.704;2023-03-04T10:10:06;8.85;;;3.15;;
2860;SDS011;1438;50.922;6.704;2023-03-04T10:12:36;12.63;;;3.28;;
2860;SDS011;1438;50.922;6.704;2023-03-04T10:18:00;4.53;;;2.65;;
2860;SDS011;1438;50.922;6.704;2023-03-04T10:20:44;12.68;;;3.95;;
2860;SDS011;1438;50.922;6.704;2023-03-04T10:23:14;11.57;;;3.55;;
2860;SDS011;1438;50.922;6.704;2023-03-04T10:25:42;7.68;;;3.30;;
2860;SDS011;1438;50.922;6.704;2023-03-04T10:33:25;9.02;;;3.30;;
2860;SDS011;1438;50.922;6.704;2023-03-04T10:35:55;9.52;;;3.22;;
2860;SDS011;1438;50.922;6.704;2023-03-04T10:38:25;5.95;;;3.10;;
2860;SDS011;1438;50.922;6.704;2023-03-04T10:40:51;6.28;;;2.95;;
2860;SDS011;1438;50.922;6.704;2023-03-04T10:43:18;6.80;;;2.90;;
2860;SDS011;1438;50.922;6.704;2023-03-04T10:45:44;8.75;;;2.90;;
2860;SDS011;1438;50.922;6.704;2023-03-04T10:48:17;7.55;;;3.17;;
2860;SDS011;1438;50.922;6.704;2023-03-04T10:50:44;3.95;;;2.30;;
2860;SDS011;1438;50.922;6.704;2023-03-04T10:53:29;15.20;;;3.40;;
2860;SDS011;1438;50.922;6.704;2023-03-04T10:55:57;10.25;;;2.30;;
2860;SDS011;1438;50.922;6.704;2023-03-04T10:58:23;5.32;;;2.55;;
2860;SDS011;1438;50.922;6.704;2023-03-04T11:01:00;8.32;;;2.40;;
2860;SDS011;1438;50.922;6.704;2023-03-04T11:03:28;7.78;;;2.20;;
2860;SDS011;1438;50.922;6.704;2023-03-04T11:08:38;4.38;;;1.73;;
2860;SDS011;1438;50.922;6.704;2023-03-04T11:11:18;5.10;;;2.20;;
2860;SDS011;1438;50.922;6.704;2023-03-04T11:13:49;4.30;;;1.77;;
2860;SDS011;1438;50.922;6.704;2023-03-04T11:16:24;3.00;;;2.22;;
2860;SDS011;1438;50.922;6.704;2023-03-04T11:19:05;4.25;;;2.17;;
2860;SDS011;1438;50.922;6.704;2023-03-04T11:21:33;5.82;;;1.90;;
2860;SDS011;1438;50.922;6.704;2023-03-04T11:24:03;2.55;;;1.52;;
2860;SDS011;1438;50.922;6.704;2023-03-04T11:28:58;4.32;;;1.90;;
2860;SDS011;1438;50.922;6.704;2023-03-04T11:36:53;4.55;;;1.48;;
2860;SDS011;1438;50.922;6.704;2023-03-04T11:42:01;4.13;;;1.45;;
2860;SDS011;1438;50.922;6.704;2023-03-04T11:44:30;3.28;;;1.38;;
2860;SDS011;1438;50.922;6.704;2023-03-04T11:57:05;6.15;;;2.00;;
2860;SDS011;1438;50.922;6.704;2023-03-04T12:02:11;4.90;;;1.40;;
2860;SDS011;1438;50.922;6.704;2023-03-04T12:22:45;4.45;;;2.13;;
2860;SDS011;1438;50.922;6.704;2023-03-04T12:30:52;3.05;;;1.58;;
2860;SDS011;1438;50.922;6.704;2023-03-04T12:38:45;2.63;;;1.50;;
2860;SDS011;1438;50.922;6.704;2023-03-04T12:49:01;2.20;;;1.30;;
2860;SDS011;1438;50.922;6.704;2023-03-04T12:59:01;5.00;;;2.10;;
2860;SDS011;1438;50.922;6.704;2023-03-04T13:01:38;2.65;;;1.80;;
2860;SDS011;1438;50.922;6.704;2023-03-04T13:06:38;4.40;;;1.60;;
2860;SDS011;1438;50.922;6.704;2023-03-04T13:11:49;7.82;;;2.28;;
2860;SDS011;1438;50.922;6.704;2023-03-04T13:16:55;3.58;;;2.13;;
2860;SDS011;1438;50.922;6.704;2023-03-04T13:24:51;5.50;;;1.60;;
2860;SDS011;1438;50.922;6.704;2023-03-04T13:30:02;3.53;;;1.40;;
2860;SDS011;1438;50.922;6.704;2023-03-04T13:32:34;1.50;;;1.02;;
2860;SDS011;1438;50.922;6.704;2023-03-04T13:35:01;4.03;;;1.25;;
2860;SDS011;1438;50.922;6.704;2023-03-04T13:37:31;3.88;;;1.92;;
2860;SDS011;1438;50.922;6.704;2023-03-04T13:42:43;5.30;;;1.80;;
2860;SDS011;1438;50.922;6.704;2023-03-04T13:45:28;4.75;;;1.70;;
2860;SDS011;1438;50.922;6.704;2023-03-04T13:47:55;4.60;;;1.77;;
2860;SDS011;1438;50.922;6.704;2023-03-04T13:50:26;4.00;;;1.65;;
2860;SDS011;1438;50.922;6.704;2023-03-04T13:52:54;4.10;;;1.85;;
2860;SDS011;1438;50.922;6.704;2023-03-04T13:55:36;4.93;;;1.70;;
2860;SDS011;1438;50.922;6.704;2023-03-04T13:58:35;9.10;;;2.90;;
2860;SDS011;1438;50.922;6.704;2023-03-04T14:00:55;15.00;;;2.60;;
2860;SDS011;1438;50.922;6.704;2023-03-04T14:03:22;5.55;;;3.08;;
2860;SDS011;1438;50.922;6.704;2023-03-04T14:06:07;2.28;;;1.63;;
2860;SDS011;1438;50.922;6.704;2023-03-04T14:08:33;4.30;;;2.10;;
2860;SDS011;1438;50.922;6.704;2023-03-04T14:10:59;4.20;;;1.73;;
2860;SDS011;1438;50.922;6.704;2023-03-04T14:13:25;2.15;;;1.85;;
2860;SDS011;1438;50.922;6.704;2023-03-04T14:15:53;11.38;;;1.95;;
2860;SDS011;1438;50.922;6.704;2023-03-04T14:18:19;2.95;;;2.15;;
2860;SDS011;1438;50.922;6.704;2023-03-04T14:20:49;2.50;;;1.50;;
2860;SDS011;1438;50.922;6.704;2023-03-04T14:25:47;3.85;;;2.42;;
2860;SDS011;1438;50.922;6.704;2023-03-04T14:28:15;2.30;;;2.10;;
2860;SDS011;1438;50.922;6.704;2023-03-04T14:30:43;5.57;;;1.80;;
2860;SDS011;1438;50.922;6.704;2023-03-04T14:33:23;7.40;;;2.92;;
2860;SDS011;1438;50.922;6.704;2023-03-04T14:35:50;4.53;;;2.05;;
2860;SDS011;1438;50.922;6.704;2023-03-04T14:40:47;15.97;;;2.57;;
2860;SDS011;1438;50.922;6.704;2023-03-04T14:43:17;2.80;;;2.20;;
2860;SDS011;1438;50.922;6.704;2023-03-04T14:45:44;8.15;;;2.78;;
2860;SDS011;1438;50.922;6.704;2023-03-04T14:48:17;2.58;;;1.80;;
2860;SDS011;1438;50.922;6.704;2023-03-04T14:50:48;5.30;;;2.53;;
2860;SDS011;1438;50.922;6.704;2023-03-04T14:53:15;6.20;;;2.50;;
2860;SDS011;1438;50.922;6.704;2023-03-04T14:58:24;5.13;;;2.50;;
2860;SDS011;1438;50.922;6.704;2023-03-04T15:01:02;6.90;;;2.17;;
2860;SDS011;1438;50.922;6.704;2023-03-04T15:03:28;6.97;;;2.53;;
2860;SDS011;1438;50.922;6.704;2023-03-04T15:05:55;5.82;;;2.50;;
2860;SDS011;1438;50.922;6.704;2023-03-04T15:08:28;5.57;;;2.58;;
2860;SDS011;1438;50.922;6.704;2023-03-04T15:11:00;2.65;;;2.20;;
2860;SDS011;1438;50.922;6.704;2023-03-04T15:13:40;3.90;;;3.10;;
2860;SDS011;1438;50.922;6.704;2023-03-04T15:16:07;3.42;;;2.10;;
2860;SDS011;1438;50.922;6.704;2023-03-04T15:18:34;3.15;;;2.20;;
2860;SDS011;1438;50.922;6.704;2023-03-04T15:21:01;9.15;;;3.15;;
2860;SDS011;1438;50.922;6.704;2023-03-04T15:23:29;5.55;;;2.60;;
2860;SDS011;1438;50.922;6.704;2023-03-04T15:25:56;2.58;;;2.38;;
2860;SDS011;1438;50.922;6.704;2023-03-04T15:28:23;3.67;;;2.00;;
2860;SDS011;1438;50.922;6.704;2023-03-04T15:30:49;2.75;;;1.38;;
2860;SDS011;1438;50.922;6.704;2023-03-04T15:33:16;4.85;;;2.50;;
2860;SDS011;1438;50.922;6.704;2023-03-04T15:35:50;4.25;;;2.50;;
2860;SDS011;1438;50.922;6.704;2023-03-04T15:38:17;3.85;;;2.35;;
2860;SDS011;1438;50.922;6.704;2023-03-04T15:40:43;5.28;;;2.30;;
2860;SDS011;1438;50.922;6.704;2023-03-04T15:43:12;7.57;;;2.65;;
2860;SDS011;1438;50.922;6.704;2023-03-04T15:45:39;3.33;;;2.60;;
2860;SDS011;1438;50.922;6.704;2023-03-04T15:48:06;10.85;;;2.17;;
2860;SDS011;1438;50.922;6.704;2023-03-04T15:50:34;8.13;;;2.65;;
2860;SDS011;1438;50.922;6.704;2023-03-04T15:53:01;3.78;;;2.78;;
2860;SDS011;1438;50.922;6.704;2023-03-04T15:55:28;3.13;;;2.58;;
2860;SDS011;1438;50.922;6.704;2023-03-04T15:57:55;5.07;;;2.25;;
2860;SDS011;1438;50.922;6.704;2023-03-04T16:00:22;7.28;;;3.00;;
2860;SDS011;1438;50.922;6.704;2023-03-04T16:02:48;5.20;;;2.97;;
2860;SDS011;1438;50.922;6.704;2023-03-04T16:05:15;5.97;;;3.58;;
2860;SDS011;1438;50.922;6.704;2023-03-04T16:07:43;4.20;;;3.00;;
2860;SDS011;1438;50.922;6.704;2023-03-04T16:10:16;4.35;;;2.85;;
2860;SDS011;1438;50.922;6.704;2023-03-04T16:12:43;6.03;;;3.40;;
2860;SDS011;1438;50.922;6.704;2023-03-04T16:15:27;4.87;;;2.87;;
2860;SDS011;1438;50.922;6.704;2023-03-04T16:17:53;9.15;;;3.38;;
2860;SDS011;1438;50.922;6.704;2023-03-04T16:20:20;8.40;;;3.15;;
2860;SDS011;1438;50.922;6.704;2023-03-04T16:22:48;7.65;;;2.75;;
2860;SDS011;1438;50.922;6.704;2023-03-04T16:25:15;5.00;;;3.10;;
2860;SDS011;1438;50.922;6.704;2023-03-04T16:27:41;7.93;;;3.15;;
2860;SDS011;1438;50.922;6.704;2023-03-04T16:30:11;8.68;;;3.28;;
2860;SDS011;1438;50.922;6.704;2023-03-04T16:32:38;3.63;;;2.47;;
2860;SDS011;1438;50.922;6.704;2023-03-04T16:35:04;6.87;;;3.70;;
2860;SDS011;1438;50.922;6.704;2023-03-04T16:37:30;3.85;;;3.00;;
2860;SDS011;1438;50.922;6.704;2023-03-04T16:39:56;8.50;;;3.60;;
2860;SDS011;1438;50.922;6.704;2023-03-04T16:42:23;7.40;;;4.97;;
2860;SDS011;1438;50.922;6.704;2023-03-04T16:44:51;5.70;;;3.63;;
2860;SDS011;1438;50.922;6.704;2023-03-04T16:47:17;8.33;;;4.07;;
2860;SDS011;1438;50.922;6.704;2023-03-04T16:49:43;6.78;;;4.30;;
2860;SDS011;1438;50.922;6.704;2023-03-04T16:52:19;8.73;;;4.85;;
2860;SDS011;1438;50.922;6.704;2023-03-04T16:54:47;5.15;;;3.70;;